Time;durP1;ratioP1;P1;durP2;ratioP2;P2;SDS_P1;SDS_P2;PMS_P1;PMS_P2;Temp;Humidity;BMP_temperature;BMP_pressure;BME280_temperature;BME280_humidity;BME280_pressure;Samples;Min_cycle;Max_cycle;Signal;HPM_P1;HPM_P2
2021/10/05 00:05:36;;;;;;;4.18;2.42;;;22.20;58.00;;;;;;31147655;28;20068;-47
2021/10/05 00:20:38;;;;;;;2.72;1.92;;;22.60;57.40;;;;;;31146270;28;20042;-43
2021/10/05 00:35:41;;;;;;;3.03;1.60;;;22.90;56.90;;;;;;31144414;28;20042;-46
2021/10/05 00:50:44;;;;;;;2.33;1.83;;;23.00;57.10;;;;;;31138667;28;20054;-46
2021/10/05 01:05:46;;;;;;;2.55;2.00;;;22.90;56.80;;;;;;31140185;28;20062;-49
2021/10/05 01:20:59;;;;;;;4.10;2.15;;;22.90;56.80;;;;;;31130678;28;20106;-48
2021/10/05 01:36:01;;;;;;;2.03;1.55;;;22.80;57.30;;;;;;31129145;28;20102;-45
2021/10/05 01:51:03;;;;;;;1.92;1.48;;;22.70;57.60;;;;;;31127260;28;20074;-51
2021/10/05 02:06:05;;;;;;;3.53;1.80;;;22.70;57.20;;;;;;31132450;28;20046;-44
2021/10/05 02:21:07;;;;;;;2.30;1.73;;;22.50;58.20;;;;;;31133816;28;20085;-44
2021/10/05 02:36:09;;;;;;;2.03;1.80;;;22.50;58.10;;;;;;31123880;28;20082;-53
2021/10/05 02:51:11;;;;;;;2.58;2.10;;;22.40;58.30;;;;;;31123025;28;20143;-48
2021/10/05 03:06:13;;;;;;;2.55;1.80;;;22.40;58.60;;;;;;31132328;28;20042;-48
2021/10/05 03:21:16;;;;;;;38.08;26.83;;;22.40;58.60;;;;;;31200838;28;20069;-56
2021/10/05 03:36:18;;;;;;;9.95;8.27;;;22.30;57.40;;;;;;31267119;28;20066;-49
2021/10/05 03:51:20;;;;;;;20.15;14.32;;;22.60;57.90;;;;;;31265389;28;20080;-44
2021/10/05 04:06:22;;;;;;;5.30;4.13;;;23.40;55.90;;;;;;31259703;28;20132;-52
2021/10/05 04:21:24;;;;;;;8.38;4.57;;;23.20;56.30;;;;;;31258758;28;20045;-45
2021/10/05 04:44:28;;;;;;;9.18;5.18;;;23.00;57.00;;;;;;31909930;22;1537130;-40
2021/10/05 04:59:32;;;;;;;14.05;5.75;;;23.00;56.80;;;;;;31860724;28;20101;-57
2021/10/05 05:14:34;;;;;;;9.88;6.03;;;23.00;57.40;;;;;;31855387;28;20060;-46
2021/10/05 05:29:36;;;;;;;51.10;33.10;;;22.90;58.70;;;;;;31850390;28;20047;-47
2021/10/05 05:44:40;;;;;;;30.88;19.33;;;22.70;53.60;;;;;;31825656;28;20147;-49
2021/10/05 05:59:42;;;;;;;25.42;14.88;;;22.70;52.20;;;;;;31763107;28;20131;-47
2021/10/05 06:14:44;;;;;;;22.67;13.43;;;22.50;51.50;;;;;;31762399;28;20051;-46
2021/10/05 06:29:46;;;;;;;46.97;33.13;;;22.50;51.00;;;;;;31760708;28;20127;-47
2021/10/05 06:44:48;;;;;;;34.15;21.77;;;22.40;49.80;;;;;;31401874;28;10000051;-49
2021/10/05 06:59:50;;;;;;;27.23;18.33;;;22.40;50.30;;;;;;31761289;28;20055;-48
2021/10/05 07:14:52;;;;;;;22.30;14.55;;;22.40;51.90;;;;;;31760353;28;20044;-47
2021/10/05 07:30:09;;;;;;;14.88;10.73;;;22.30;51.10;;;;;;31757311;28;20050;-49
2021/10/05 07:45:11;;;;;;;18.98;10.55;;;22.20;49.70;;;;;;31753578;28;20071;-46
2021/10/05 08:00:14;;;;;;;26.20;11.05;;;22.40;51.80;;;;;;31747363;28;20048;-48
2021/10/05 08:15:16;;;;;;;24.90;10.73;;;22.90;52.70;;;;;;31721917;28;20067;-48
2021/10/05 08:30:19;;;;;;;17.25;9.27;;;22.90;52.30;;;;;;31739220;28;20040;-47
2021/10/05 08:45:21;;;;;;;20.20;8.80;;;22.90;51.90;;;;;;31747392;28;20060;-50
2021/10/05 09:00:29;;;;;;;19.45;7.28;;;22.80;51.70;;;;;;31746112;28;20048;-42
2021/10/05 09:15:32;;;;;;;14.38;6.68;;;22.70;50.70;;;;;;31749221;28;20095;-44
2021/10/05 09:30:35;;;;;;;14.45;6.72;;;22.60;51.30;;;;;;31770312;28;20051;-44
2021/10/05 09:45:40;;;;;;;10.43;4.97;;;22.50;50.10;;;;;;31772635;28;20048;-45
2021/10/05 10:00:47;;;;;;;8.65;4.68;;;22.40;48.90;;;;;;31770988;28;20048;-46
2021/10/05 10:15:52;;;;;;;9.75;5.18;;;22.30;49.00;;;;;;31767563;28;20044;-49
2021/10/05 10:30:58;;;;;;;9.63;5.00;;;22.40;50.20;;;;;;31409267;27;10000062;-56
2021/10/05 10:46:03;;;;;;;16.27;5.00;;;22.30;50.30;;;;;;31758785;28;20052;-44
2021/10/05 11:01:06;;;;;;;18.08;5.82;;;22.40;49.70;;;;;;31762626;28;20059;-45
2021/10/05 11:16:08;;;;;;;9.45;3.85;;;22.40;49.70;;;;;;31759140;28;20064;-44
2021/10/05 11:31:12;;;;;;;12.13;4.07;;;22.30;49.50;;;;;;31737259;28;20044;-45
2021/10/05 11:46:17;;;;;;;8.43;3.78;;;22.30;47.40;;;;;;31757036;28;20060;-45
2021/10/05 12:01:31;;;;;;;9.90;4.20;;;22.30;46.40;;;;;;31755519;28;20047;-44
2021/10/05 12:16:41;;;;;;;24.27;16.00;;;22.20;45.40;;;;;;31753300;28;20043;-47
2021/10/05 12:31:53;;;;;;;18.90;12.52;;;22.20;48.50;;;;;;31626839;28;20126;-42
2021/10/05 12:47:00;;;;;;;14.02;11.57;;;22.20;47.90;;;;;;31623711;28;20061;-42
2021/10/05 13:02:03;;;;;;;15.48;9.38;;;22.20;48.10;;;;;;31643633;28;20063;-43
2021/10/05 13:17:05;;;;;;;24.17;16.05;;;22.70;48.50;;;;;;31649476;28;20076;-47
2021/10/05 13:32:08;;;;;;;20.05;11.65;;;22.90;47.30;;;;;;31734379;28;20032;-46
2021/10/05 13:47:11;;;;;;;16.98;10.00;;;22.60;43.00;;;;;;31766152;28;20056;-48
2021/10/05 14:02:13;;;;;;;17.13;8.25;;;22.50;44.70;;;;;;31761405;28;20068;-48
2021/10/05 14:17:18;;;;;;;10.45;6.80;;;22.20;45.00;;;;;;31761344;28;20048;-49
2021/10/05 14:32:20;;;;;;;9.52;6.00;;;22.20;46.80;;;;;;31762842;28;20036;-42
2021/10/05 14:47:22;;;;;;;9.55;5.90;;;22.30;45.30;;;;;;31761365;28;20056;-44
2021/10/05 15:02:25;;;;;;;13.43;5.97;;;22.30;47.10;;;;;;31762224;28;20058;-44
2021/10/05 15:17:28;;;;;;;8.10;4.90;;;22.20;47.50;;;;;;31760157;28;20051;-45
2021/10/05 15:32:30;;;;;;;19.42;6.07;;;22.10;47.60;;;;;;31758936;28;20085;-44
2021/10/05 15:47:32;;;;;;;15.20;5.00;;;22.30;47.00;;;;;;31756344;28;20059;-43
2021/10/05 16:02:34;;;;;;;20.88;5.82;;;22.40;48.40;;;;;;31746157;28;20044;-42
2021/10/05 16:17:37;;;;;;;17.10;6.10;;;22.40;49.70;;;;;;31737116;28;20121;-41
2021/10/05 16:32:40;;;;;;;18.67;5.18;;;22.50;49.90;;;;;;31749816;28;20039;-44
2021/10/05 16:47:42;;;;;;;10.77;4.60;;;22.40;51.80;;;;;;31745982;28;20075;-46
2021/10/05 17:02:45;;;;;;;14.95;4.43;;;22.40;52.40;;;;;;31744831;28;20044;-46
2021/10/05 17:17:48;;;;;;;9.25;4.45;;;22.40;52.50;;;;;;31746568;28;20032;-47
2021/10/05 17:32:50;;;;;;;8.75;4.22;;;22.40;52.70;;;;;;31392591;28;10000876;-46
2021/10/05 17:47:52;;;;;;;8.75;3.78;;;22.40;53.00;;;;;;31761538;28;20110;-50
2021/10/05 18:02:59;;;;;;;9.57;3.58;;;22.40;53.40;;;;;;31763142;28;20048;-52
2021/10/05 18:18:02;;;;;;;8.88;4.18;;;22.40;53.80;;;;;;31835676;28;20047;-51
2021/10/05 18:33:04;;;;;;;14.93;4.65;;;22.40;53.90;;;;;;31778168;28;20186;-55
2021/10/05 18:48:06;;;;;;;22.90;14.63;;;22.40;54.20;;;;;;31756934;28;20071;-45
2021/10/05 19:03:08;;;;;;;3.28;2.95;;;22.30;53.50;;;;;;31743449;28;20892;-46
2021/10/05 19:18:10;;;;;;;1.70;1.40;;;22.40;53.60;;;;;;31760025;28;20060;-43
2021/10/05 19:33:13;;;;;;;0.50;0.45;;;22.50;53.70;;;;;;31758286;28;20127;-62
2021/10/05 19:48:16;;;;;;;4.10;3.35;;;22.60;54.10;;;;;;31744952;28;20083;-49
2021/10/05 20:03:18;;;;;;;1.30;1.20;;;22.50;54.10;;;;;;31747029;28;20103;-48
2021/10/05 20:18:21;;;;;;;1.15;1.02;;;22.50;53.90;;;;;;31399200;28;9999818;-40
2021/10/05 20:33:23;;;;;;;1.13;0.90;;;22.70;53.40;;;;;;31752248;28;20044;-41
2021/10/05 20:48:25;;;;;;;6.60;1.92;;;22.70;53.50;;;;;;31749556;28;20067;-42
2021/10/05 21:03:27;;;;;;;2.30;1.88;;;22.70;53.20;;;;;;31751128;28;20059;-42
2021/10/05 21:18:29;;;;;;;4.93;1.40;;;22.70;53.50;;;;;;31759578;28;20099;-40
2021/10/05 21:33:31;;;;;;;5.72;1.55;;;22.70;53.90;;;;;;31797181;28;20040;-39
2021/10/05 21:48:33;;;;;;;3.13;1.25;;;22.60;54.20;;;;;;31770726;28;20052;-40
2021/10/05 22:03:35;;;;;;;1.90;1.20;;;22.50;54.50;;;;;;31769461;28;20048;-40
2021/10/05 22:18:37;;;;;;;2.35;1.60;;;22.50;54.60;;;;;;31767735;28;20044;-39
2021/10/05 22:33:39;;;;;;;3.33;1.55;;;22.50;54.40;;;;;;31765613;28;20041;-40
2021/10/05 22:48:41;;;;;;;4.10;1.42;;;22.40;54.30;;;;;;31764457;28;20101;-39
2021/10/05 23:03:43;;;;;;;1.30;1.20;;;22.40;54.90;;;;;;31763018;28;20040;-40
2021/10/05 23:18:46;;;;;;;2.65;1.20;;;22.30;55.20;;;;;;31760534;28;20043;-40
2021/10/05 23:33:49;;;;;;;3.63;1.52;;;22.30;55.60;;;;;;31759598;28;20098;-39
2021/10/05 23:48:52;;;;;;;1.73;1.38;;;22.30;55.90;;;;;;31756845;28;20087;-39
